createdAt,value
2022-08-05T00:01:35.949Z,17.62
2022-08-05T00:04:17.250Z,17.61
2022-08-05T00:06:47.288Z,17.55
2022-08-05T00:09:19.708Z,17.56
2022-08-05T00:11:56.178Z,17.60
2022-08-05T00:14:31.371Z,17.62
2022-08-05T00:17:02.964Z,17.65
2022-08-05T00:19:33.106Z,17.64
2022-08-05T00:22:03.024Z,17.62
2022-08-05T00:24:33.031Z,17.60
2022-08-05T00:27:04.656Z,17.59
2022-08-05T00:29:39.502Z,17.61
2022-08-05T00:32:15.673Z,17.56
2022-08-05T00:35:03.701Z,17.54
2022-08-05T00:37:51.078Z,17.48
2022-08-05T00:40:28.020Z,17.43
2022-08-05T00:42:58.575Z,17.39
2022-08-05T00:45:38.716Z,17.45
2022-08-05T00:48:10.099Z,17.41
2022-08-05T00:50:41.928Z,17.45
2022-08-05T00:53:45.050Z,17.44
2022-08-05T00:55:59.778Z,17.50
2022-08-05T00:58:28.778Z,17.52
2022-08-05T01:00:57.527Z,17.56
2022-08-05T01:03:30.880Z,17.56
2022-08-05T01:06:05.498Z,17.58
2022-08-05T01:08:43.218Z,17.59
2022-08-05T01:11:22.089Z,17.55
2022-08-05T01:14:02.375Z,17.62
2022-08-05T01:16:35.454Z,17.65
2022-08-05T01:19:17.192Z,17.69
2022-08-05T01:22:04.570Z,17.69
2022-08-05T01:25:06.887Z,17.66
2022-08-05T01:27:59.999Z,17.62
2022-08-05T01:30:34.645Z,17.63
2022-08-05T01:33:08.366Z,17.64
2022-08-05T01:35:52.172Z,17.64
2022-08-05T01:38:27.218Z,17.68
2022-08-05T01:41:01.659Z,17.77
2022-08-05T01:43:33.587Z,17.71
2022-08-05T01:46:07.559Z,17.64
2022-08-05T01:48:49.591Z,17.61
2022-08-05T01:51:19.794Z,17.65
2022-08-05T01:53:57.663Z,17.66
2022-08-05T01:58:12.249Z,17.59
2022-08-05T01:59:24.155Z,17.44
2022-08-05T02:01:57.782Z,17.25
2022-08-05T02:04:29.967Z,17.05
2022-08-05T02:06:59.889Z,16.96
2022-08-05T02:09:32.268Z,16.84
2022-08-05T02:12:06.880Z,16.88
2022-08-05T02:14:47.071Z,16.97
2022-08-05T02:18:28.061Z,16.85
2022-08-05T02:20:20.735Z,16.79
2022-08-05T02:22:56.032Z,16.75
2022-08-05T02:25:33.049Z,16.63
2022-08-05T02:28:04.288Z,16.69
2022-08-05T02:30:54.349Z,16.67
2022-08-05T02:33:36.161Z,16.61
2022-08-05T02:36:13.688Z,16.59
2022-08-05T02:38:54.024Z,16.49
2022-08-05T02:41:28.710Z,16.42
2022-08-05T02:44:13.301Z,16.46
2022-08-05T02:46:58.977Z,16.50
2022-08-05T02:49:36.576Z,16.57
2022-08-05T02:52:11.520Z,16.56
2022-08-05T02:54:50.695Z,16.57
2022-08-05T02:58:11.486Z,16.64
2022-08-05T03:00:13.766Z,16.57
2022-08-05T03:02:46.285Z,16.53
2022-08-05T03:05:17.066Z,16.56
2022-08-05T03:08:00.979Z,16.54
2022-08-05T03:10:36.035Z,16.60
2022-08-05T03:13:12.832Z,16.66
2022-08-05T03:15:46.999Z,16.66
2022-08-05T03:18:17.324Z,16.74
2022-08-05T03:20:48.854Z,16.73
2022-08-05T03:23:19.316Z,16.75
2022-08-05T03:26:04.353Z,16.78
2022-08-05T03:28:41.648Z,16.79
2022-08-05T03:31:15.768Z,16.78
2022-08-05T03:34:02.181Z,16.79
2022-08-05T03:36:31.644Z,16.76
2022-08-05T03:39:07.475Z,16.77
2022-08-05T03:41:38.756Z,16.78
2022-08-05T03:44:19.706Z,16.79
2022-08-05T03:46:48.780Z,16.78
2022-08-05T03:49:19.373Z,16.82
2022-08-05T03:52:48.658Z,16.86
2022-08-05T03:55:52.079Z,16.94
2022-08-05T03:57:46.390Z,16.92
2022-08-05T04:00:17.502Z,16.96
2022-08-05T04:02:58.135Z,16.95
2022-08-05T04:05:34.449Z,16.93
2022-08-05T04:08:34.698Z,16.91
2022-08-05T04:10:54.543Z,16.86
2022-08-05T04:13:23.735Z,16.85
2022-08-05T04:16:03.046Z,16.82
2022-08-05T04:18:34.384Z,16.83
2022-08-05T04:21:07.112Z,16.87
2022-08-05T04:23:57.383Z,16.83
2022-08-05T04:26:32.583Z,16.82
2022-08-05T04:29:07.106Z,16.86
2022-08-05T04:31:38.755Z,16.88
2022-08-05T04:34:18.302Z,16.86
2022-08-05T04:36:50.493Z,16.94
2022-08-05T04:39:19.221Z,16.91
2022-08-05T04:41:48.940Z,16.88
2022-08-05T04:44:21.592Z,16.98
2022-08-05T04:46:59.125Z,16.97
2022-08-05T04:49:38.755Z,16.95
2022-08-05T04:52:18.669Z,16.96
2022-08-05T04:54:47.426Z,16.97
2022-08-05T04:57:18.367Z,16.98
2022-08-05T04:59:47.926Z,16.97
2022-08-05T05:02:37.169Z,17.05
2022-08-05T05:05:16.805Z,17.03
2022-08-05T05:08:01.765Z,17.05
2022-08-05T05:10:33.343Z,17.01
2022-08-05T05:13:04.372Z,17.07
2022-08-05T05:15:56.763Z,17.10
2022-08-05T05:18:28.720Z,17.10
2022-08-05T05:21:03.093Z,17.10
2022-08-05T05:23:39.219Z,17.01
2022-08-05T05:26:28.593Z,17.03
2022-08-05T05:29:02.716Z,17.00
2022-08-05T05:31:46.383Z,17.09
2022-08-05T05:34:15.523Z,17.03
2022-08-05T05:36:45.641Z,16.95
2022-08-05T05:39:19.285Z,16.95
2022-08-05T05:41:54.527Z,16.94
2022-08-05T05:44:36.789Z,17.02
2022-08-05T05:47:21.293Z,17.05
2022-08-05T05:49:56.817Z,17.04
2022-08-05T05:52:33.177Z,17.08
2022-08-05T05:55:13.385Z,17.10
2022-08-05T05:57:52.875Z,17.11
2022-08-05T06:00:31.349Z,17.16
2022-08-05T06:03:40.867Z,17.15
2022-08-05T06:05:54.089Z,17.17
2022-08-05T06:08:32.422Z,17.26
2022-08-05T06:11:03.063Z,17.26
2022-08-05T06:13:40.896Z,17.24
2022-08-05T06:16:30.286Z,17.15
2022-08-05T06:19:02.029Z,17.26
2022-08-05T06:21:37.603Z,17.24
2022-08-05T06:24:11.736Z,17.22
2022-08-05T06:26:52.280Z,17.34
2022-08-05T06:29:46.847Z,17.29
2022-08-05T06:32:25.565Z,17.37
2022-08-05T06:34:58.770Z,17.34
2022-08-05T06:37:55.645Z,17.34
2022-08-05T06:40:20.934Z,17.32
2022-08-05T06:42:52.738Z,17.30
2022-08-05T06:46:02.915Z,17.24
2022-08-05T06:48:47.060Z,17.20
2022-08-05T06:51:00.088Z,17.20
2022-08-05T06:53:29.438Z,17.19
2022-08-05T06:55:59.646Z,17.20
2022-08-05T06:58:36.528Z,17.20
2022-08-05T07:01:07.523Z,17.26
2022-08-05T07:03:36.235Z,17.23
2022-08-05T07:06:14.384Z,17.23
2022-08-05T07:08:48.020Z,17.22
2022-08-05T07:11:25.148Z,17.21
2022-08-05T07:14:15.855Z,17.21
2022-08-05T07:18:00.823Z,17.29
2022-08-05T07:20:31.396Z,17.28
2022-08-05T07:22:36.946Z,17.27
2022-08-05T07:25:21.697Z,17.26
2022-08-05T07:27:57.400Z,17.32
2022-08-05T07:30:34.534Z,17.28
2022-08-05T07:33:10.558Z,17.07
2022-08-05T07:36:02.438Z,16.85
2022-08-05T07:38:43.466Z,16.76
2022-08-05T07:42:12.847Z,16.64
2022-08-05T07:44:14.149Z,16.54
2022-08-05T07:46:50.402Z,16.40
2022-08-05T07:49:20.455Z,16.35
2022-08-05T07:51:54.548Z,16.27
2022-08-05T07:54:31.082Z,16.06
2022-08-05T07:57:17.678Z,16.14
2022-08-05T07:59:51.390Z,16.02
2022-08-05T08:02:26.576Z,16.06
2022-08-05T08:05:00.336Z,16.08
2022-08-05T08:07:39.786Z,15.99
2022-08-05T08:10:20.813Z,16.04
2022-08-05T08:12:50.031Z,16.03
2022-08-05T08:15:37.184Z,16.01
2022-08-05T08:18:13.932Z,15.98
2022-08-05T08:21:01.907Z,16.03
2022-08-05T08:24:02.126Z,16.05
2022-08-05T08:26:29.829Z,15.94
2022-08-05T08:29:21.665Z,15.94
2022-08-05T08:31:49.146Z,15.95
2022-08-05T08:34:30.475Z,15.90
2022-08-05T08:37:04.662Z,15.87
2022-08-05T08:39:37.815Z,15.85
2022-08-05T08:42:27.543Z,15.87
2022-08-05T08:45:23.346Z,15.84
2022-08-05T08:48:05.918Z,15.82
2022-08-05T08:51:04.084Z,15.78
2022-08-05T08:53:36.619Z,15.77
2022-08-05T08:56:06.340Z,15.70
2022-08-05T08:58:43.332Z,15.64
2022-08-05T09:01:18.193Z,15.54
2022-08-05T09:03:52.830Z,15.66
2022-08-05T09:06:29.279Z,15.72
2022-08-05T09:09:01.075Z,15.60
2022-08-05T09:11:52.110Z,15.57
2022-08-05T09:14:57.544Z,15.65
2022-08-05T09:17:41.294Z,15.72
2022-08-05T09:20:02.927Z,15.84
2022-08-05T09:23:09.235Z,15.90
2022-08-05T09:26:01.629Z,16.01
2022-08-05T09:28:31.450Z,15.99
2022-08-05T09:31:22.570Z,16.00
2022-08-05T09:33:58.676Z,16.04
2022-08-05T09:36:53.990Z,16.13
2022-08-05T09:39:39.275Z,16.32
2022-08-05T09:42:23.500Z,16.41
2022-08-05T09:45:17.791Z,16.48
2022-08-05T09:47:54.961Z,16.56
2022-08-05T09:50:37.771Z,16.45
2022-08-05T09:53:08.753Z,16.58
2022-08-05T09:55:56.774Z,16.83
2022-08-05T09:58:30.544Z,16.84
2022-08-05T10:01:01.925Z,17.11
2022-08-05T10:03:59.291Z,17.19
2022-08-05T10:06:28.791Z,17.27
2022-08-05T10:09:10.519Z,17.29
2022-08-05T10:12:18.898Z,17.40
2022-08-05T10:15:20.670Z,17.39
2022-08-05T10:18:11.113Z,17.46
2022-08-05T10:20:44.142Z,17.77
2022-08-05T10:23:34.209Z,17.36
2022-08-05T10:26:14.501Z,17.38
2022-08-05T10:28:47.899Z,17.48
2022-08-05T10:32:50.555Z,17.81
2022-08-05T10:34:08.073Z,18.16
2022-08-05T10:36:38.836Z,18.46
2022-08-05T10:39:15.113Z,19.08
2022-08-05T10:42:01.231Z,19.39
2022-08-05T10:44:33.404Z,20.03
2022-08-05T10:47:26.228Z,20.48
2022-08-05T10:50:32.225Z,21.81
2022-08-05T10:53:01.085Z,23.45
2022-08-05T10:55:32.883Z,23.71
2022-08-05T10:58:21.299Z,23.57
2022-08-05T11:00:55.083Z,23.55
2022-08-05T11:03:29.276Z,22.97
2022-08-05T11:06:08.456Z,24.42
2022-08-05T11:09:16.895Z,24.63
2022-08-05T11:11:53.151Z,25.64
2022-08-05T11:14:57.802Z,25.19
2022-08-05T11:17:57.163Z,25.86
2022-08-05T11:20:37.449Z,25.97
2022-08-05T11:23:33.549Z,25.78
2022-08-05T11:26:28.626Z,24.37
2022-08-05T11:29:06.775Z,25.84
2022-08-05T11:31:58.293Z,26.00
2022-08-05T11:34:51.846Z,27.77
2022-08-05T11:38:26.716Z,27.64
2022-08-05T11:41:34.206Z,27.01
2022-08-05T11:44:07.213Z,26.12
2022-08-05T11:47:11.726Z,24.68
2022-08-05T11:49:27.692Z,26.08
2022-08-05T11:51:57.982Z,27.13
2022-08-05T11:54:33.341Z,26.68
2022-08-05T11:57:08.013Z,25.89
2022-08-05T11:59:54.626Z,24.63
2022-08-05T12:02:31.409Z,26.97
2022-08-05T12:05:07.471Z,26.90
2022-08-05T12:08:09.215Z,27.15
2022-08-05T12:10:38.465Z,26.78
2022-08-05T12:13:18.580Z,25.62
2022-08-05T12:15:56.999Z,27.23
2022-08-05T12:18:34.574Z,29.08
2022-08-05T12:21:12.351Z,29.64
2022-08-05T12:23:53.241Z,30.32
2022-08-05T12:26:23.175Z,31.03
2022-08-05T12:28:52.851Z,30.55
2022-08-05T12:31:28.066Z,29.84
2022-08-05T12:34:03.570Z,27.62
2022-08-05T12:36:32.616Z,26.47
2022-08-05T12:39:05.492Z,26.82
2022-08-05T12:41:43.620Z,27.28
2022-08-05T12:44:28.520Z,27.98
2022-08-05T12:47:03.748Z,27.19
2022-08-05T12:50:04.037Z,26.63
2022-08-05T12:52:38.539Z,29.11
2022-08-05T12:55:25.357Z,29.71
2022-08-05T12:58:50.214Z,28.76
2022-08-05T13:02:03.285Z,29.42
2022-08-05T13:03:42.202Z,28.08
2022-08-05T13:06:16.074Z,27.33
2022-08-05T13:08:51.621Z,28.27
2022-08-05T13:11:25.436Z,29.45
2022-08-05T13:14:19.245Z,27.08
2022-08-05T13:16:56.539Z,26.39
2022-08-05T13:19:27.418Z,26.84
2022-08-05T13:22:28.298Z,27.51
2022-08-05T13:25:05.637Z,27.16
2022-08-05T13:27:40.926Z,26.49
2022-08-05T13:30:34.107Z,26.82
2022-08-05T13:33:00.927Z,27.35
2022-08-05T13:35:42.603Z,26.41
2022-08-05T13:38:28.148Z,24.90
2022-08-05T13:41:00.514Z,24.04
2022-08-05T13:43:45.652Z,23.51
2022-08-05T13:46:30.852Z,22.89
2022-08-05T13:49:10.261Z,22.55
2022-08-05T13:51:46.658Z,22.60
2022-08-05T13:54:17.127Z,22.56
2022-08-05T13:56:51.511Z,22.43
2022-08-05T13:59:27.184Z,22.71
2022-08-05T14:02:00.739Z,22.95
2022-08-05T14:04:49.392Z,23.59
2022-08-05T14:07:25.451Z,24.31
2022-08-05T14:10:13.804Z,24.84
2022-08-05T14:12:48.611Z,24.88
2022-08-05T14:16:08.518Z,24.60
2022-08-05T14:18:15.172Z,24.25
2022-08-05T14:20:48.322Z,24.18
2022-08-05T14:23:24.515Z,24.20
2022-08-05T14:25:59.127Z,24.00
2022-08-05T14:28:29.456Z,24.23
2022-08-05T14:31:01.038Z,24.49
2022-08-05T14:33:57.021Z,24.42
2022-08-05T14:36:20.529Z,24.68
2022-08-05T14:38:50.907Z,24.72
2022-08-05T14:41:20.015Z,24.66
2022-08-05T14:43:57.798Z,24.61
2022-08-05T14:46:34.999Z,24.60
2022-08-05T14:49:07.301Z,24.43
2022-08-05T14:51:37.977Z,24.32
2022-08-05T14:54:28.098Z,23.94
2022-08-05T14:56:57.109Z,24.20
2022-08-05T14:59:29.097Z,24.09
2022-08-05T15:01:59.992Z,23.89
2022-08-05T15:04:29.300Z,23.62
2022-08-05T15:06:58.283Z,23.56
2022-08-05T15:09:52.169Z,23.60
2022-08-05T15:12:16.726Z,23.64
2022-08-05T15:14:56.512Z,23.75
2022-08-05T15:17:47.202Z,23.38
2022-08-05T15:20:18.738Z,23.28
2022-08-05T15:22:54.179Z,22.94
2022-08-05T15:25:51.637Z,22.93
2022-08-05T15:28:14.722Z,22.68
2022-08-05T15:30:45.714Z,22.66
2022-08-05T15:33:56.893Z,22.68
2022-08-05T15:36:16.917Z,22.62
2022-08-05T15:38:46.969Z,22.44
2022-08-05T15:41:21.523Z,22.21
2022-08-05T15:43:55.076Z,22.00
2022-08-05T15:46:25.140Z,21.96
2022-08-05T15:49:00.640Z,21.81
2022-08-05T15:52:03.651Z,21.95
2022-08-05T15:54:20.188Z,22.27
2022-08-05T15:57:03.932Z,22.41
2022-08-05T15:59:38.235Z,22.35
2022-08-05T16:02:14.783Z,22.28
2022-08-05T16:04:50.130Z,22.37
2022-08-05T16:07:18.703Z,22.45
2022-08-05T16:09:54.187Z,22.56
2022-08-05T16:12:22.937Z,22.61
2022-08-05T16:14:52.270Z,22.49
2022-08-05T16:17:20.819Z,22.47
2022-08-05T16:20:05.723Z,22.25
2022-08-05T16:22:39.676Z,22.14
2022-08-05T16:25:10.819Z,22.16
2022-08-05T16:28:00.362Z,22.11
2022-08-05T16:30:30.742Z,22.04
2022-08-05T16:33:01.856Z,22.02
2022-08-05T16:35:34.648Z,21.71
2022-08-05T16:38:24.452Z,21.67
2022-08-05T16:41:00.529Z,21.53
2022-08-05T16:43:32.128Z,21.42
2022-08-05T16:46:04.152Z,21.42
2022-08-05T16:48:37.931Z,21.47
2022-08-05T16:51:10.764Z,21.31
2022-08-05T16:54:05.771Z,21.16
2022-08-05T16:56:34.605Z,21.06
2022-08-05T16:59:08.122Z,20.97
2022-08-05T17:01:53.650Z,20.82
2022-08-05T17:04:26.553Z,20.81
2022-08-05T17:07:01.271Z,20.76
2022-08-05T17:09:38.887Z,20.71
2022-08-05T17:12:51.369Z,20.73
2022-08-05T17:15:15.816Z,20.80
2022-08-05T17:17:54.708Z,20.85
2022-08-05T17:20:25.062Z,20.89
2022-08-05T17:22:57.492Z,20.86
2022-08-05T17:25:39.860Z,20.71
2022-08-05T17:28:09.927Z,20.49
2022-08-05T17:30:50.692Z,20.40
2022-08-05T17:33:21.297Z,20.25
2022-08-05T17:36:07.793Z,20.17
2022-08-05T17:38:40.265Z,20.15
2022-08-05T18:23:45.587Z,19.31
2022-08-05T18:26:18.181Z,19.34
2022-08-05T18:28:47.483Z,19.27
2022-08-05T18:31:16.909Z,19.28
2022-08-05T18:33:47.221Z,19.27
2022-08-05T18:36:19.472Z,19.21
2022-08-05T18:38:49.471Z,19.14
2022-08-05T18:41:55.688Z,19.10
2022-08-05T18:44:12.841Z,18.98
2022-08-05T18:46:43.173Z,18.92
2022-08-05T18:49:30.360Z,18.94
2022-08-05T18:52:16.753Z,18.83
2022-08-05T18:54:48.550Z,18.80
2022-08-05T18:57:19.726Z,18.71
2022-08-05T19:00:07.521Z,18.70
2022-08-05T19:02:48.843Z,18.57
2022-08-05T19:06:06.312Z,18.52
2022-08-05T19:08:13.649Z,18.47
2022-08-05T19:10:45.889Z,18.40
2022-08-05T19:13:15.975Z,18.29
2022-08-05T19:15:59.347Z,18.20
2022-08-05T19:18:32.198Z,18.08
2022-08-05T19:21:00.865Z,18.01
2022-08-05T19:24:07.943Z,17.94
2022-08-05T19:26:27.760Z,17.71
2022-08-05T19:28:56.634Z,17.54
2022-08-05T19:31:25.810Z,17.42
2022-08-05T19:33:56.845Z,17.28
2022-08-05T19:36:26.388Z,17.23
2022-08-05T19:39:00.736Z,17.14
2022-08-05T19:41:57.984Z,16.92
2022-08-05T19:44:20.746Z,16.90
2022-08-05T19:46:50.137Z,16.80
2022-08-05T19:49:19.293Z,16.66
2022-08-05T19:52:05.821Z,16.47
2022-08-05T19:54:37.258Z,16.42
2022-08-05T19:57:09.940Z,16.31
2022-08-05T19:59:56.618Z,16.24
2022-08-05T20:02:31.395Z,16.14
2022-08-05T20:05:00.641Z,16.11
2022-08-05T20:07:46.647Z,15.94
2022-08-05T20:10:19.317Z,15.97
2022-08-05T20:12:52.157Z,15.83
2022-08-05T20:15:22.992Z,15.78
2022-08-05T20:18:33.791Z,15.68
2022-08-05T20:21:00.030Z,15.73
2022-08-05T20:23:39.727Z,15.59
2022-08-05T20:26:18.374Z,15.62
2022-08-05T20:28:50.710Z,15.58
2022-08-05T20:31:21.593Z,15.55
2022-08-05T20:33:52.022Z,15.43
2022-08-05T20:36:21.859Z,15.45
2022-08-05T20:38:54.554Z,15.39
2022-08-05T20:41:43.124Z,15.23
2022-08-05T20:44:19.037Z,15.15
2022-08-05T20:47:01.075Z,15.04
2022-08-05T20:49:29.646Z,15.02
2022-08-05T20:52:01.968Z,14.92
2022-08-05T20:54:59.963Z,14.88
2022-08-05T20:57:42.172Z,14.87
2022-08-05T21:00:41.381Z,14.76
2022-08-05T21:03:06.221Z,14.71
2022-08-05T21:05:47.542Z,14.69
2022-08-05T21:08:26.490Z,14.59
2022-08-05T21:10:58.310Z,14.57
2022-08-05T21:13:48.055Z,14.52
2022-08-05T21:16:22.402Z,14.46
2022-08-05T21:19:00.120Z,14.40
2022-08-05T21:21:39.352Z,14.36
2022-08-05T21:24:15.323Z,14.24
2022-08-05T21:26:53.140Z,14.07
2022-08-05T21:29:23.601Z,14.04
2022-08-05T21:31:57.041Z,13.99
2022-08-05T21:34:26.524Z,13.96
2022-08-05T21:36:57.042Z,13.85
2022-08-05T21:39:26.785Z,13.76
2022-08-05T21:42:01.079Z,13.75
2022-08-05T21:44:31.791Z,13.67
2022-08-05T21:47:02.486Z,13.63
2022-08-05T21:50:00.348Z,13.59
2022-08-05T21:52:27.632Z,13.62
2022-08-05T21:55:06.839Z,13.60
2022-08-05T21:57:36.075Z,13.57
2022-08-05T22:00:10.912Z,13.54
2022-08-05T22:02:44.445Z,13.50
2022-08-05T22:05:14.485Z,13.37
2022-08-05T22:07:59.002Z,13.29
2022-08-05T22:10:31.155Z,13.09
2022-08-05T22:14:05.026Z,12.95
2022-08-05T22:16:01.060Z,12.85
2022-08-05T22:18:39.019Z,12.68
2022-08-05T22:21:18.701Z,12.67
2022-08-05T22:24:08.957Z,12.67
2022-08-05T22:26:58.970Z,12.56
2022-08-05T22:29:32.827Z,12.60
2022-08-05T22:32:03.297Z,12.49
2022-08-05T22:34:33.999Z,12.43
2022-08-05T22:37:03.981Z,12.48
2022-08-05T22:39:34.551Z,12.40
2022-08-05T22:42:11.512Z,12.41
2022-08-05T22:44:48.248Z,12.44
2022-08-05T22:47:29.237Z,12.49
2022-08-05T22:50:21.399Z,12.54
2022-08-05T22:52:51.446Z,12.57
2022-08-05T22:55:22.267Z,12.49
2022-08-05T22:57:51.577Z,12.51
2022-08-05T23:00:22.486Z,12.50
2022-08-05T23:02:53.330Z,12.47
2022-08-05T23:05:24.191Z,12.36
2022-08-05T23:07:53.653Z,12.21
2022-08-05T23:10:23.884Z,12.10
2022-08-05T23:12:55.590Z,11.94
2022-08-05T23:15:26.941Z,11.81
2022-08-05T23:18:02.082Z,11.82
2022-08-05T23:20:37.442Z,11.71
2022-08-05T23:23:08.576Z,11.73
2022-08-05T23:25:51.257Z,11.66
2022-08-05T23:28:29.078Z,11.45
2022-08-05T23:31:02.362Z,11.23
2022-08-05T23:34:03.932Z,11.02
2022-08-05T23:36:40.103Z,10.97
2022-08-05T23:39:17.398Z,10.92
2022-08-05T23:42:01.361Z,10.85
2022-08-05T23:44:31.502Z,10.89
2022-08-05T23:47:02.639Z,10.94
2022-08-05T23:49:44.266Z,10.95
2022-08-05T23:52:30.483Z,10.79
2022-08-05T23:55:02.184Z,10.68
2022-08-05T23:57:34.663Z,10.65
